TGL66PC LFQQ-LSGG
Flight info
| Callsign | TGL66PC |
|---|---|
| Flight time | 1h 3m |
| Altitude | 19000 |
| Route | MATIX Y50 REM B3 VATRI T11 SOMDA A6 DJL |
| Aircraft | A320/M-SDE3FGHIRWY/LB1 |
Departure
| Time | 2026-04-16 12:26 |
|---|---|
| Airport | Lille Airport (LFQQ) |
Arrival
| Time | 2026-04-16 13:30 |
|---|---|
| Airport | Geneva International Airport (LSGG) |
| Time | Latitude | Longitude | Altitude | Speed | Heading |
|---|---|---|---|---|---|
| 2026-04-16 11:37 | 50.57131 | 3.10442 | 158 ft | 0 kts | 77° |
| 2026-04-16 12:09 | 50.57129 | 3.10433 | 158 ft | 4 kts | 78° |
| 2026-04-16 12:09 | 50.57126 | 3.10395 | 158 ft | 4 kts | 120° |
| 2026-04-16 12:10 | 50.57131 | 3.10387 | 158 ft | 0 kts | 166° |
| 2026-04-16 12:17 | 50.57127 | 3.10389 | 158 ft | 3 kts | 166° |
| 2026-04-16 12:17 | 50.57110 | 3.10395 | 158 ft | 1 kts | 166° |
| 2026-04-16 12:18 | 50.57106 | 3.10397 | 158 ft | 3 kts | 166° |
| 2026-04-16 12:18 | 50.57047 | 3.10419 | 158 ft | 14 kts | 168° |
| 2026-04-16 12:18 | 50.57019 | 3.10568 | 158 ft | 20 kts | 75° |
| 2026-04-16 12:18 | 50.57077 | 3.10772 | 158 ft | 18 kts | 81° |
| 2026-04-16 12:19 | 50.57097 | 3.10788 | 158 ft | 8 kts | 265° |
| 2026-04-16 12:19 | 50.57049 | 3.10701 | 157 ft | 14 kts | 206° |
| 2026-04-16 12:19 | 50.56944 | 3.10715 | 158 ft | 16 kts | 167° |
| 2026-04-16 12:19 | 50.56848 | 3.10794 | 160 ft | 17 kts | 112° |
| 2026-04-16 12:20 | 50.56868 | 3.10982 | 160 ft | 17 kts | 77° |
| 2026-04-16 12:20 | 50.56898 | 3.11182 | 163 ft | 19 kts | 77° |
| 2026-04-16 12:20 | 50.56926 | 3.11382 | 164 ft | 17 kts | 79° |
| 2026-04-16 12:20 | 50.56932 | 3.11554 | 164 ft | 12 kts | 113° |
| 2026-04-16 12:21 | 50.56911 | 3.11585 | 165 ft | 0 kts | 157° |
| 2026-04-16 12:23 | 50.56903 | 3.11591 | 166 ft | 5 kts | 158° |
| 2026-04-16 12:24 | 50.56846 | 3.11614 | 169 ft | 12 kts | 168° |
| 2026-04-16 12:24 | 50.56774 | 3.11715 | 171 ft | 20 kts | 100° |
| 2026-04-16 12:24 | 50.56803 | 3.11993 | 168 ft | 29 kts | 77° |
| 2026-04-16 12:24 | 50.56836 | 3.12170 | 165 ft | 10 kts | 43° |
| 2026-04-16 12:25 | 50.56858 | 3.12126 | 165 ft | 7 kts | 230° |
| 2026-04-16 12:25 | 50.56824 | 3.12059 | 166 ft | 8 kts | 244° |
| 2026-04-16 12:25 | 50.56805 | 3.11941 | 169 ft | 15 kts | 257° |
| 2026-04-16 12:25 | 50.56761 | 3.11645 | 172 ft | 56 kts | 257° |
| 2026-04-16 12:26 | 50.56624 | 3.10695 | 162 ft | 119 kts | 257° |
| 2026-04-16 12:26 | 50.56405 | 3.09180 | 223 ft | 160 kts | 258° |
| 2026-04-16 12:26 | 50.56192 | 3.07490 | 916 ft | 161 kts | 260° |
| 2026-04-16 12:26 | 50.55792 | 3.05892 | 1726 ft | 159 kts | 224° |
| 2026-04-16 12:27 | 50.54806 | 3.04986 | 2217 ft | 175 kts | 204° |
| 2026-04-16 12:27 | 50.53589 | 3.04270 | 2522 ft | 198 kts | 202° |
| 2026-04-16 12:27 | 50.52158 | 3.03919 | 2833 ft | 226 kts | 172° |
| 2026-04-16 12:27 | 50.50720 | 3.05182 | 3284 ft | 255 kts | 135° |
| 2026-04-16 12:28 | 50.49658 | 3.07507 | 4032 ft | 268 kts | 121° |
| 2026-04-16 12:28 | 50.48789 | 3.10140 | 4914 ft | 275 kts | 117° |
| 2026-04-16 12:28 | 50.47959 | 3.12860 | 5809 ft | 278 kts | 117° |
| 2026-04-16 12:28 | 50.47098 | 3.15599 | 6711 ft | 281 kts | 118° |
| 2026-04-16 12:29 | 50.46184 | 3.18334 | 7549 ft | 285 kts | 120° |
| 2026-04-16 12:29 | 50.45218 | 3.21075 | 8369 ft | 289 kts | 122° |
| 2026-04-16 12:29 | 50.44209 | 3.23839 | 9178 ft | 295 kts | 122° |
| 2026-04-16 12:29 | 50.43168 | 3.26633 | 9996 ft | 299 kts | 123° |
| 2026-04-16 12:30 | 50.42088 | 3.29495 | 10505 ft | 315 kts | 123° |
| 2026-04-16 12:30 | 50.40928 | 3.32548 | 10776 ft | 337 kts | 123° |
| 2026-04-16 12:30 | 50.39711 | 3.35764 | 11367 ft | 346 kts | 123° |
| 2026-04-16 12:30 | 50.38897 | 3.37923 | 11838 ft | 350 kts | 123° |
| 2026-04-16 12:31 | 50.37230 | 3.42302 | 12800 ft | 355 kts | 126° |
| 2026-04-16 12:31 | 50.35698 | 3.45346 | 13502 ft | 357 kts | 134° |
| 2026-04-16 12:31 | 50.34056 | 3.48292 | 14189 ft | 361 kts | 134° |
| 2026-04-16 12:31 | 50.32395 | 3.51273 | 14799 ft | 366 kts | 134° |
| 2026-04-16 12:32 | 50.31260 | 3.53308 | 15207 ft | 369 kts | 134° |
| 2026-04-16 12:32 | 50.29589 | 3.56304 | 15788 ft | 373 kts | 134° |
| 2026-04-16 12:32 | 50.27866 | 3.59384 | 16376 ft | 378 kts | 134° |
| 2026-04-16 12:32 | 50.26126 | 3.62491 | 16976 ft | 382 kts | 134° |
| 2026-04-16 12:33 | 50.24362 | 3.65632 | 17565 ft | 387 kts | 134° |
| 2026-04-16 12:33 | 50.22576 | 3.68809 | 18152 ft | 392 kts | 134° |
| 2026-04-16 12:33 | 50.20768 | 3.72024 | 18680 ft | 397 kts | 134° |
| 2026-04-16 12:33 | 50.18938 | 3.75278 | 19096 ft | 401 kts | 134° |
| 2026-04-16 12:34 | 50.17100 | 3.78547 | 19209 ft | 399 kts | 134° |
| 2026-04-16 12:34 | 50.15298 | 3.81741 | 19244 ft | 388 kts | 134° |
| 2026-04-16 12:34 | 50.13525 | 3.84881 | 19241 ft | 385 kts | 134° |
| 2026-04-16 12:34 | 50.11645 | 3.87804 | 19234 ft | 379 kts | 144° |
| 2026-04-16 12:35 | 50.09472 | 3.90069 | 19242 ft | 374 kts | 156° |
| 2026-04-16 12:35 | 50.07086 | 3.91588 | 19241 ft | 369 kts | 168° |
| 2026-04-16 12:35 | 50.04587 | 3.92323 | 19241 ft | 364 kts | 178° |
| 2026-04-16 12:35 | 50.02068 | 3.92732 | 19242 ft | 364 kts | 178° |
| 2026-04-16 12:36 | 49.99549 | 3.93147 | 19246 ft | 364 kts | 178° |
| 2026-04-16 12:36 | 49.97031 | 3.93568 | 19245 ft | 364 kts | 178° |
| 2026-04-16 12:36 | 49.94513 | 3.93994 | 19247 ft | 364 kts | 178° |
| 2026-04-16 12:36 | 49.91994 | 3.94422 | 19246 ft | 364 kts | 178° |
| 2026-04-16 12:37 | 49.89507 | 3.94845 | 19239 ft | 364 kts | 178° |
| 2026-04-16 12:37 | 49.86953 | 3.95276 | 19245 ft | 364 kts | 178° |
| 2026-04-16 12:37 | 49.84467 | 3.95694 | 19249 ft | 364 kts | 178° |
| 2026-04-16 12:37 | 49.81946 | 3.96114 | 19250 ft | 364 kts | 178° |
| 2026-04-16 12:38 | 49.79427 | 3.96532 | 19256 ft | 364 kts | 178° |
| 2026-04-16 12:38 | 49.76907 | 3.96951 | 19258 ft | 364 kts | 178° |
| 2026-04-16 12:38 | 49.74388 | 3.97375 | 19259 ft | 364 kts | 178° |
| 2026-04-16 12:38 | 49.71871 | 3.97798 | 19260 ft | 364 kts | 178° |
| 2026-04-16 12:39 | 49.69351 | 3.98218 | 19260 ft | 364 kts | 178° |
| 2026-04-16 12:39 | 49.66831 | 3.98636 | 19252 ft | 364 kts | 178° |
| 2026-04-16 12:39 | 49.64313 | 3.99052 | 19256 ft | 364 kts | 177° |
| 2026-04-16 12:39 | 49.61795 | 3.99475 | 19259 ft | 364 kts | 177° |
| 2026-04-16 12:40 | 49.59277 | 3.99901 | 19261 ft | 364 kts | 177° |
| 2026-04-16 12:40 | 49.56761 | 4.00323 | 19258 ft | 364 kts | 177° |
| 2026-04-16 12:40 | 49.54246 | 4.00741 | 19260 ft | 364 kts | 178° |
| 2026-04-16 12:40 | 49.51728 | 4.01155 | 19260 ft | 364 kts | 178° |
| 2026-04-16 12:41 | 49.49211 | 4.01572 | 19264 ft | 364 kts | 177° |
| 2026-04-16 12:41 | 49.46694 | 4.01990 | 19264 ft | 364 kts | 177° |
| 2026-04-16 12:41 | 49.44176 | 4.02407 | 19254 ft | 364 kts | 177° |
| 2026-04-16 12:41 | 49.41661 | 4.02819 | 19263 ft | 364 kts | 177° |
| 2026-04-16 12:42 | 49.39146 | 4.03232 | 19264 ft | 364 kts | 177° |
| 2026-04-16 12:42 | 49.36631 | 4.03645 | 19251 ft | 363 kts | 177° |
| 2026-04-16 12:42 | 49.34116 | 4.04060 | 19255 ft | 363 kts | 177° |
| 2026-04-16 12:42 | 49.31604 | 4.04472 | 19261 ft | 363 kts | 178° |
| 2026-04-16 12:43 | 49.29093 | 4.04598 | 19266 ft | 361 kts | 183° |
| 2026-04-16 12:43 | 49.26580 | 4.04646 | 19269 ft | 361 kts | 183° |
| 2026-04-16 12:43 | 49.24069 | 4.04694 | 19271 ft | 361 kts | 183° |
| 2026-04-16 12:43 | 49.21557 | 4.04739 | 19281 ft | 361 kts | 182° |
| 2026-04-16 12:44 | 49.19048 | 4.04788 | 19279 ft | 361 kts | 182° |
| 2026-04-16 12:44 | 49.16537 | 4.04843 | 19282 ft | 361 kts | 182° |
| 2026-04-16 12:44 | 49.14031 | 4.04899 | 19282 ft | 361 kts | 182° |
| 2026-04-16 12:44 | 49.11520 | 4.04959 | 19276 ft | 361 kts | 182° |
| 2026-04-16 12:45 | 49.09011 | 4.05028 | 19288 ft | 361 kts | 182° |
| 2026-04-16 12:45 | 49.06502 | 4.05100 | 19275 ft | 361 kts | 182° |
| 2026-04-16 12:45 | 49.03994 | 4.05168 | 19287 ft | 360 kts | 182° |
| 2026-04-16 12:45 | 49.01484 | 4.05234 | 19276 ft | 360 kts | 182° |
| 2026-04-16 12:46 | 48.98978 | 4.05301 | 19277 ft | 360 kts | 182° |
| 2026-04-16 12:46 | 48.96470 | 4.05367 | 19279 ft | 360 kts | 182° |
| 2026-04-16 12:46 | 48.94029 | 4.05431 | 19281 ft | 360 kts | 182° |
| 2026-04-16 12:46 | 48.91523 | 4.05497 | 19283 ft | 360 kts | 182° |
| 2026-04-16 12:47 | 48.89016 | 4.05566 | 19285 ft | 360 kts | 182° |
| 2026-04-16 12:47 | 48.86509 | 4.05635 | 19286 ft | 360 kts | 182° |
| 2026-04-16 12:47 | 48.84002 | 4.05704 | 19287 ft | 360 kts | 182° |
| 2026-04-16 12:47 | 48.81496 | 4.05774 | 19289 ft | 360 kts | 182° |
| 2026-04-16 12:48 | 48.78991 | 4.06058 | 19287 ft | 363 kts | 173° |
| 2026-04-16 12:48 | 48.76530 | 4.06975 | 19288 ft | 365 kts | 168° |
| 2026-04-16 12:48 | 48.74078 | 4.07992 | 19288 ft | 365 kts | 168° |
| 2026-04-16 12:48 | 48.71630 | 4.09005 | 19290 ft | 365 kts | 168° |
| 2026-04-16 12:49 | 48.69176 | 4.10016 | 19287 ft | 365 kts | 168° |
| 2026-04-16 12:49 | 48.66726 | 4.11018 | 19287 ft | 365 kts | 168° |
| 2026-04-16 12:49 | 48.64273 | 4.12019 | 19287 ft | 365 kts | 168° |
| 2026-04-16 12:49 | 48.61821 | 4.13018 | 19287 ft | 365 kts | 168° |
| 2026-04-16 12:50 | 48.59369 | 4.14020 | 19284 ft | 365 kts | 168° |
| 2026-04-16 12:50 | 48.56918 | 4.15024 | 19272 ft | 365 kts | 168° |
| 2026-04-16 12:50 | 48.54467 | 4.16025 | 19272 ft | 365 kts | 168° |
| 2026-04-16 12:50 | 48.52015 | 4.17027 | 19272 ft | 365 kts | 168° |
| 2026-04-16 12:51 | 48.49562 | 4.18027 | 19276 ft | 365 kts | 168° |
| 2026-04-16 12:51 | 48.47107 | 4.19027 | 19277 ft | 365 kts | 168° |
| 2026-04-16 12:51 | 48.44653 | 4.20022 | 19280 ft | 365 kts | 168° |
| 2026-04-16 12:51 | 48.42198 | 4.21018 | 19281 ft | 365 kts | 168° |
| 2026-04-16 12:52 | 48.39742 | 4.22014 | 19281 ft | 365 kts | 168° |
| 2026-04-16 12:52 | 48.37285 | 4.23012 | 19283 ft | 366 kts | 168° |
| 2026-04-16 12:52 | 48.34832 | 4.24018 | 19270 ft | 366 kts | 166° |
| 2026-04-16 12:52 | 48.32466 | 4.25470 | 19270 ft | 370 kts | 155° |
| 2026-04-16 12:53 | 48.30194 | 4.27301 | 19269 ft | 370 kts | 155° |
| 2026-04-16 12:53 | 48.27922 | 4.29127 | 19275 ft | 371 kts | 155° |
| 2026-04-16 12:53 | 48.25647 | 4.30950 | 19275 ft | 371 kts | 155° |
| 2026-04-16 12:53 | 48.23372 | 4.32767 | 19275 ft | 371 kts | 155° |
| 2026-04-16 12:54 | 48.21093 | 4.34582 | 19274 ft | 371 kts | 155° |
| 2026-04-16 12:54 | 48.18814 | 4.36391 | 19275 ft | 371 kts | 155° |
| 2026-04-16 12:54 | 48.16565 | 4.38176 | 19275 ft | 371 kts | 155° |
| 2026-04-16 12:54 | 48.14255 | 4.40009 | 19274 ft | 371 kts | 155° |
| 2026-04-16 12:55 | 48.12010 | 4.41798 | 19264 ft | 371 kts | 154° |
| 2026-04-16 12:55 | 48.09743 | 4.43637 | 19268 ft | 371 kts | 154° |
| 2026-04-16 12:55 | 48.07479 | 4.45487 | 19270 ft | 371 kts | 154° |
| 2026-04-16 12:55 | 48.05219 | 4.47337 | 19273 ft | 371 kts | 154° |
| 2026-04-16 12:56 | 48.02956 | 4.49183 | 19274 ft | 371 kts | 154° |
| 2026-04-16 12:56 | 48.00693 | 4.51028 | 19274 ft | 370 kts | 154° |
| 2026-04-16 12:56 | 47.98431 | 4.52866 | 19276 ft | 370 kts | 154° |
| 2026-04-16 12:56 | 47.96164 | 4.54697 | 19275 ft | 370 kts | 154° |
| 2026-04-16 12:57 | 47.93900 | 4.56526 | 19273 ft | 370 kts | 154° |
| 2026-04-16 12:57 | 47.91634 | 4.58354 | 19266 ft | 370 kts | 154° |
| 2026-04-16 12:57 | 47.89368 | 4.60177 | 19269 ft | 370 kts | 154° |
| 2026-04-16 12:57 | 47.87103 | 4.62001 | 19270 ft | 370 kts | 154° |
| 2026-04-16 12:58 | 47.84838 | 4.63825 | 19272 ft | 370 kts | 154° |
| 2026-04-16 12:58 | 47.82575 | 4.65647 | 19275 ft | 370 kts | 154° |
| 2026-04-16 12:58 | 47.80309 | 4.67467 | 19274 ft | 370 kts | 154° |
| 2026-04-16 12:58 | 47.78044 | 4.69285 | 19273 ft | 370 kts | 154° |
| 2026-04-16 12:59 | 47.75780 | 4.71103 | 19276 ft | 370 kts | 154° |
| 2026-04-16 12:59 | 47.73516 | 4.72918 | 19273 ft | 370 kts | 154° |
| 2026-04-16 12:59 | 47.71251 | 4.74732 | 19273 ft | 370 kts | 154° |
| 2026-04-16 13:00 | 47.66722 | 4.78346 | 19270 ft | 370 kts | 154° |
| 2026-04-16 13:00 | 47.64459 | 4.80150 | 19270 ft | 369 kts | 154° |
| 2026-04-16 13:00 | 47.62195 | 4.81956 | 19272 ft | 369 kts | 154° |
| 2026-04-16 13:00 | 47.59933 | 4.83761 | 19274 ft | 369 kts | 154° |
| 2026-04-16 13:01 | 47.57670 | 4.85566 | 19274 ft | 369 kts | 154° |
| 2026-04-16 13:01 | 47.55409 | 4.87366 | 19276 ft | 369 kts | 154° |
| 2026-04-16 13:01 | 47.53144 | 4.89161 | 19277 ft | 369 kts | 154° |
| 2026-04-16 13:01 | 47.50879 | 4.90954 | 19277 ft | 369 kts | 154° |
| 2026-04-16 13:02 | 47.48615 | 4.92747 | 19268 ft | 369 kts | 154° |
| 2026-04-16 13:02 | 47.46382 | 4.94515 | 19272 ft | 369 kts | 154° |
| 2026-04-16 13:02 | 47.44119 | 4.96299 | 19276 ft | 369 kts | 154° |
| 2026-04-16 13:02 | 47.41856 | 4.98083 | 19280 ft | 369 kts | 154° |
| 2026-04-16 13:03 | 47.39594 | 4.99867 | 19281 ft | 368 kts | 154° |
| 2026-04-16 13:03 | 47.37335 | 5.01652 | 19284 ft | 368 kts | 154° |
| 2026-04-16 13:03 | 47.35074 | 5.03441 | 19286 ft | 368 kts | 154° |
| 2026-04-16 13:03 | 47.32815 | 5.05220 | 19287 ft | 368 kts | 154° |
| 2026-04-16 13:04 | 47.30553 | 5.06995 | 19287 ft | 368 kts | 154° |
| 2026-04-16 13:04 | 47.28290 | 5.08768 | 19287 ft | 368 kts | 154° |
| 2026-04-16 13:04 | 47.26098 | 5.10730 | 19281 ft | 370 kts | 147° |
| 2026-04-16 13:04 | 47.24000 | 5.12925 | 19281 ft | 370 kts | 147° |
| 2026-04-16 13:05 | 47.21899 | 5.15115 | 19282 ft | 370 kts | 147° |
| 2026-04-16 13:05 | 47.19798 | 5.17298 | 19283 ft | 370 kts | 147° |
| 2026-04-16 13:05 | 47.17694 | 5.19480 | 19282 ft | 370 kts | 147° |
| 2026-04-16 13:05 | 47.15589 | 5.21661 | 19281 ft | 370 kts | 147° |
| 2026-04-16 13:06 | 47.13486 | 5.23834 | 19277 ft | 370 kts | 147° |
| 2026-04-16 13:06 | 47.11381 | 5.26010 | 19259 ft | 370 kts | 147° |
| 2026-04-16 13:06 | 47.09276 | 5.28188 | 19257 ft | 370 kts | 147° |
| 2026-04-16 13:06 | 47.07171 | 5.30363 | 19257 ft | 370 kts | 147° |
| 2026-04-16 13:07 | 47.05066 | 5.32531 | 19250 ft | 370 kts | 147° |
| 2026-04-16 13:07 | 47.02960 | 5.34697 | 19253 ft | 370 kts | 147° |
| 2026-04-16 13:07 | 47.00855 | 5.36861 | 19255 ft | 370 kts | 147° |
| 2026-04-16 13:07 | 46.98749 | 5.39024 | 19257 ft | 369 kts | 147° |
| 2026-04-16 13:08 | 46.96644 | 5.41184 | 19255 ft | 369 kts | 147° |
| 2026-04-16 13:08 | 46.94541 | 5.43342 | 19256 ft | 369 kts | 147° |
| 2026-04-16 13:08 | 46.92434 | 5.45499 | 19257 ft | 369 kts | 147° |
| 2026-04-16 13:08 | 46.90329 | 5.47651 | 19258 ft | 369 kts | 147° |
| 2026-04-16 13:09 | 46.88252 | 5.49776 | 19261 ft | 369 kts | 147° |
| 2026-04-16 13:09 | 46.86147 | 5.51932 | 19261 ft | 369 kts | 147° |
| 2026-04-16 13:09 | 46.84045 | 5.54088 | 19262 ft | 369 kts | 147° |
| 2026-04-16 13:09 | 46.81942 | 5.56240 | 19255 ft | 369 kts | 147° |
| 2026-04-16 13:10 | 46.79837 | 5.58387 | 19253 ft | 369 kts | 147° |
| 2026-04-16 13:10 | 46.77731 | 5.60527 | 19255 ft | 369 kts | 147° |
| 2026-04-16 13:10 | 46.75621 | 5.62664 | 19256 ft | 369 kts | 147° |
| 2026-04-16 13:10 | 46.73514 | 5.64800 | 19256 ft | 369 kts | 147° |
| 2026-04-16 13:11 | 46.71410 | 5.66936 | 19259 ft | 369 kts | 147° |
| 2026-04-16 13:11 | 46.69304 | 5.69073 | 19260 ft | 369 kts | 147° |
| 2026-04-16 13:11 | 46.67194 | 5.71214 | 19259 ft | 369 kts | 147° |
| 2026-04-16 13:11 | 46.65081 | 5.73355 | 19256 ft | 369 kts | 147° |
| 2026-04-16 13:12 | 46.62976 | 5.75484 | 19250 ft | 369 kts | 147° |
| 2026-04-16 13:12 | 46.60868 | 5.77609 | 19250 ft | 369 kts | 147° |
| 2026-04-16 13:12 | 46.58787 | 5.79706 | 19250 ft | 371 kts | 147° |
| 2026-04-16 13:12 | 46.56626 | 5.81882 | 19243 ft | 383 kts | 147° |
| 2026-04-16 13:13 | 46.54439 | 5.84085 | 19214 ft | 379 kts | 147° |
| 2026-04-16 13:13 | 46.52296 | 5.86247 | 18898 ft | 373 kts | 147° |
| 2026-04-16 13:13 | 46.50177 | 5.88386 | 18506 ft | 370 kts | 147° |
| 2026-04-16 13:13 | 46.48073 | 5.90508 | 18044 ft | 367 kts | 147° |
| 2026-04-16 13:14 | 46.45981 | 5.92610 | 17578 ft | 365 kts | 147° |
| 2026-04-16 13:14 | 46.43901 | 5.94692 | 17145 ft | 362 kts | 147° |
| 2026-04-16 13:14 | 46.41832 | 5.96758 | 16718 ft | 360 kts | 147° |
| 2026-04-16 13:14 | 46.39774 | 5.98811 | 16286 ft | 358 kts | 147° |
| 2026-04-16 13:15 | 46.37726 | 6.00831 | 15892 ft | 355 kts | 150° |
| 2026-04-16 13:15 | 46.35466 | 6.02109 | 15574 ft | 345 kts | 173° |
| 2026-04-16 13:15 | 46.33141 | 6.02025 | 15450 ft | 328 kts | 195° |
| 2026-04-16 13:15 | 46.31087 | 6.00758 | 15206 ft | 317 kts | 217° |
| 2026-04-16 13:16 | 46.29475 | 5.98633 | 14877 ft | 312 kts | 227° |
| 2026-04-16 13:16 | 46.27954 | 5.96399 | 14540 ft | 311 kts | 227° |
| 2026-04-16 13:16 | 46.26435 | 5.94173 | 14231 ft | 310 kts | 227° |
| 2026-04-16 13:16 | 46.24926 | 5.91967 | 13900 ft | 308 kts | 227° |
| 2026-04-16 13:17 | 46.23421 | 5.89772 | 13552 ft | 307 kts | 227° |
| 2026-04-16 13:17 | 46.21922 | 5.87586 | 13207 ft | 305 kts | 226° |
| 2026-04-16 13:17 | 46.20431 | 5.85416 | 12863 ft | 303 kts | 226° |
| 2026-04-16 13:17 | 46.18971 | 5.83292 | 12521 ft | 301 kts | 227° |
| 2026-04-16 13:18 | 46.17494 | 5.81149 | 11999 ft | 305 kts | 226° |
| 2026-04-16 13:18 | 46.15961 | 5.78928 | 11095 ft | 321 kts | 225° |
| 2026-04-16 13:18 | 46.14348 | 5.76598 | 10136 ft | 336 kts | 224° |
| 2026-04-16 13:18 | 46.12664 | 5.74166 | 8993 ft | 350 kts | 225° |
| 2026-04-16 13:19 | 46.10921 | 5.71647 | 7689 ft | 358 kts | 225° |
| 2026-04-16 13:19 | 46.09164 | 5.69148 | 6836 ft | 348 kts | 221° |
| 2026-04-16 13:19 | 46.07160 | 5.67447 | 6495 ft | 324 kts | 198° |
| 2026-04-16 13:19 | 46.05037 | 5.66973 | 6329 ft | 296 kts | 176° |
| 2026-04-16 13:20 | 46.03119 | 5.67493 | 6218 ft | 267 kts | 156° |
| 2026-04-16 13:20 | 46.01578 | 5.68707 | 6220 ft | 244 kts | 140° |
| 2026-04-16 13:20 | 46.00406 | 5.70416 | 6222 ft | 236 kts | 124° |
| 2026-04-16 13:20 | 45.99670 | 5.72393 | 6215 ft | 215 kts | 102° |
| 2026-04-16 13:21 | 45.99581 | 5.74477 | 6222 ft | 207 kts | 76° |
| 2026-04-16 13:21 | 45.99879 | 5.75751 | 6227 ft | 199 kts | 58° |
| 2026-04-16 13:21 | 46.00672 | 5.77192 | 6228 ft | 172 kts | 43° |
| 2026-04-16 13:21 | 46.01463 | 5.78338 | 6229 ft | 150 kts | 42° |
| 2026-04-16 13:22 | 46.02183 | 5.79379 | 6220 ft | 145 kts | 43° |
| 2026-04-16 13:22 | 46.02886 | 5.80398 | 6230 ft | 143 kts | 43° |
| 2026-04-16 13:22 | 46.03591 | 5.81419 | 6228 ft | 143 kts | 41° |
| 2026-04-16 13:22 | 46.04291 | 5.82434 | 6228 ft | 144 kts | 43° |
| 2026-04-16 13:23 | 46.04997 | 5.83458 | 6217 ft | 144 kts | 44° |
| 2026-04-16 13:23 | 46.05705 | 5.84485 | 6095 ft | 143 kts | 44° |
| 2026-04-16 13:23 | 46.06408 | 5.85506 | 5932 ft | 144 kts | 44° |
| 2026-04-16 13:23 | 46.07100 | 5.86510 | 5761 ft | 142 kts | 43° |
| 2026-04-16 13:24 | 46.07797 | 5.87523 | 5575 ft | 142 kts | 43° |
| 2026-04-16 13:24 | 46.08492 | 5.88534 | 5386 ft | 142 kts | 44° |
| 2026-04-16 13:24 | 46.09183 | 5.89538 | 5211 ft | 140 kts | 42° |
| 2026-04-16 13:24 | 46.09875 | 5.90546 | 5042 ft | 141 kts | 42° |
| 2026-04-16 13:25 | 46.10572 | 5.91560 | 4850 ft | 142 kts | 42° |
| 2026-04-16 13:25 | 46.11264 | 5.92568 | 4655 ft | 141 kts | 43° |
| 2026-04-16 13:25 | 46.11962 | 5.93583 | 4459 ft | 143 kts | 44° |
| 2026-04-16 13:25 | 46.12652 | 5.94590 | 4273 ft | 140 kts | 43° |
| 2026-04-16 13:26 | 46.13339 | 5.95590 | 4080 ft | 140 kts | 41° |
| 2026-04-16 13:26 | 46.14024 | 5.96589 | 3892 ft | 142 kts | 43° |
| 2026-04-16 13:26 | 46.14712 | 5.97592 | 3715 ft | 141 kts | 45° |
| 2026-04-16 13:26 | 46.15396 | 5.98592 | 3530 ft | 138 kts | 43° |
| 2026-04-16 13:27 | 46.16068 | 5.99572 | 3352 ft | 137 kts | 43° |
| 2026-04-16 13:27 | 46.16740 | 6.00554 | 3166 ft | 137 kts | 44° |
| 2026-04-16 13:27 | 46.17412 | 6.01535 | 2973 ft | 136 kts | 43° |
| 2026-04-16 13:27 | 46.18088 | 6.02523 | 2786 ft | 139 kts | 44° |
| 2026-04-16 13:28 | 46.18758 | 6.03503 | 2600 ft | 135 kts | 43° |
| 2026-04-16 13:28 | 46.19429 | 6.04483 | 2417 ft | 139 kts | 44° |
| 2026-04-16 13:28 | 46.20101 | 6.05466 | 2219 ft | 136 kts | 43° |
| 2026-04-16 13:28 | 46.20775 | 6.06453 | 2023 ft | 139 kts | 42° |
| 2026-04-16 13:29 | 46.21452 | 6.07443 | 1834 ft | 137 kts | 43° |
| 2026-04-16 13:29 | 46.22109 | 6.08403 | 1648 ft | 139 kts | 44° |
| 2026-04-16 13:29 | 46.22783 | 6.09397 | 1458 ft | 135 kts | 44° |
| 2026-04-16 13:29 | 46.23408 | 6.10303 | 1388 ft | 109 kts | 45° |
| 2026-04-16 13:30 | 46.23779 | 6.10860 | 1378 ft | 40 kts | 47° |
| 2026-04-16 13:30 | 46.23857 | 6.11039 | 1378 ft | 14 kts | 116° |
| 2026-04-16 13:30 | 46.23797 | 6.11080 | 1376 ft | 0 kts | 168° |
| 2026-04-16 13:35 | 46.23789 | 6.11083 | 1377 ft | 6 kts | 163° |
| 2026-04-16 13:36 | 46.23764 | 6.11168 | 1377 ft | 5 kts | 64° |
| 2026-04-16 13:36 | 46.23756 | 6.11189 | 1377 ft | 2 kts | 136° |
| 2026-04-16 13:36 | 46.23729 | 6.11210 | 1375 ft | 7 kts | 151° |
| 2026-04-16 13:36 | 46.23717 | 6.11224 | 1376 ft | 0 kts | 136° |
| 2026-04-16 13:37 | 46.23718 | 6.11223 | 1376 ft | 0 kts | 136° |
| 2026-04-16 13:37 | 46.23717 | 6.11224 | 1376 ft | 0 kts | 136° |